createdAt,value
2022-09-01T00:01:43.786Z,94060.22
2022-09-01T00:04:13.464Z,94061.72
2022-09-01T00:06:40.853Z,94059.97
2022-09-01T00:09:10.519Z,94054.16
2022-09-01T00:11:38.406Z,94024.91
2022-09-01T00:14:24.071Z,94031.59
2022-09-01T00:16:54.483Z,94059.00
2022-09-01T00:19:21.947Z,94031.44
2022-09-01T00:21:48.563Z,94022.41
2022-09-01T00:24:17.580Z,94052.63
2022-09-01T00:26:44.603Z,94026.63
2022-09-01T00:29:11.459Z,94042.84
2022-09-01T00:31:38.631Z,94007.78
2022-09-01T00:34:05.447Z,94037.84
2022-09-01T00:36:31.935Z,94042.22
2022-09-01T00:38:58.512Z,94028.19
2022-09-01T00:41:27.362Z,94043.69
2022-09-01T00:43:56.876Z,94026.44
2022-09-01T00:46:32.492Z,94052.66
2022-09-01T00:49:02.920Z,94047.06
2022-09-01T00:51:33.329Z,94047.22
2022-09-01T00:54:01.779Z,94021.50
2022-09-01T00:56:31.889Z,93996.25
2022-09-01T00:59:00.751Z,94023.28
2022-09-01T01:01:27.589Z,94046.22
2022-09-01T01:03:54.095Z,94023.72
2022-09-01T01:06:26.774Z,94024.00
2022-09-01T01:09:00.451Z,93999.47
2022-09-01T01:11:32.320Z,94040.53
2022-09-01T01:14:12.044Z,94033.94
2022-09-01T01:16:46.646Z,94036.59
2022-09-01T01:19:57.406Z,94034.53
2022-09-01T01:22:53.856Z,94007.94
2022-09-01T01:25:22.361Z,94020.97
2022-09-01T01:27:48.832Z,94001.97
2022-09-01T01:30:18.996Z,93992.69
2022-09-01T01:32:47.559Z,94022.69
2022-09-01T01:35:16.840Z,94024.66
2022-09-01T01:37:46.546Z,94033.22
2022-09-01T01:40:15.971Z,94017.59
2022-09-01T01:42:48.787Z,94028.66
2022-09-01T01:45:17.820Z,93996.66
2022-09-01T01:47:47.424Z,94027.06
2022-09-01T01:50:15.160Z,94011.28
2022-09-01T01:52:45.457Z,94033.03
2022-09-01T01:55:12.749Z,94027.06
2022-09-01T01:57:41.181Z,94018.44
2022-09-01T02:00:09.510Z,94038.81
2022-09-01T02:02:38.113Z,94022.31
2022-09-01T02:05:06.842Z,94003.13
2022-09-01T02:07:33.793Z,94005.03
2022-09-01T02:10:01.923Z,94029.25
2022-09-01T02:12:28.443Z,94024.16
2022-09-01T02:14:55.180Z,94023.59
2022-09-01T02:17:22.475Z,94030.91
2022-09-01T02:19:49.316Z,94025.41
2022-09-01T02:22:15.703Z,94032.28
2022-09-01T02:24:48.059Z,94039.16
2022-09-01T02:27:15.683Z,94027.09
2022-09-01T02:29:43.238Z,94031.78
2022-09-01T02:32:11.660Z,94014.69
2022-09-01T02:34:39.875Z,94020.38
2022-09-01T02:37:06.286Z,94030.38
2022-09-01T02:39:33.529Z,94002.34
2022-09-01T02:42:01.388Z,94036.59
2022-09-01T02:44:31.002Z,94036.75
2022-09-01T02:46:58.755Z,93964.56
2022-09-01T02:49:29.663Z,94031.06
2022-09-01T02:52:01.156Z,94005.78
2022-09-01T02:54:29.939Z,94028.28
2022-09-01T02:56:56.801Z,94017.03
2022-09-01T02:59:26.339Z,94028.28
2022-09-01T03:01:54.077Z,94019.06
2022-09-01T03:04:22.454Z,94018.56
2022-09-01T03:06:50.860Z,93993.81
2022-09-01T03:09:18.624Z,93999.78
2022-09-01T03:11:48.909Z,93968.09
2022-09-01T03:14:15.758Z,94001.13
2022-09-01T03:16:42.323Z,94006.41
2022-09-01T03:19:09.638Z,94006.72
2022-09-01T03:21:40.818Z,94014.66
2022-09-01T03:24:16.759Z,93963.22
2022-09-01T03:26:44.758Z,94000.09
2022-09-01T03:29:15.612Z,93976.06
2022-09-01T03:31:42.843Z,93976.34
2022-09-01T03:34:10.950Z,93965.69
2022-09-01T03:36:37.397Z,93971.53
2022-09-01T03:39:04.170Z,93985.44
2022-09-01T03:41:30.961Z,93974.38
2022-09-01T03:43:58.907Z,93986.59
2022-09-01T03:46:26.816Z,93986.44
2022-09-01T03:48:55.727Z,93980.78
2022-09-01T03:51:24.147Z,93966.00
2022-09-01T03:53:55.026Z,93950.72
2022-09-01T03:56:24.093Z,93946.75
2022-09-01T03:58:50.512Z,93988.69
2022-09-01T04:01:17.687Z,93991.75
2022-09-01T04:03:48.643Z,93960.22
2022-09-01T04:06:18.478Z,93993.81
2022-09-01T04:08:47.044Z,93961.94
2022-09-01T04:11:20.439Z,93967.94
2022-09-01T04:13:47.330Z,93996.41
2022-09-01T04:16:49.189Z,93990.63
2022-09-01T04:19:20.853Z,93985.91
2022-09-01T04:21:53.643Z,93995.53
2022-09-01T04:24:21.228Z,93974.66
2022-09-01T04:26:49.552Z,93991.97
2022-09-01T04:29:24.171Z,93989.19
2022-09-01T04:31:53.581Z,93969.19
2022-09-01T04:34:22.583Z,93984.00
2022-09-01T04:36:50.002Z,93980.53
2022-09-01T04:39:21.704Z,93990.75
2022-09-01T04:41:51.115Z,93974.94
2022-09-01T04:44:19.304Z,93962.25
2022-09-01T04:46:50.652Z,93962.84
2022-09-01T04:49:21.921Z,93983.28
2022-09-01T04:51:53.633Z,93930.53
2022-09-01T04:54:22.824Z,93976.00
2022-09-01T04:56:52.370Z,93970.59
2022-09-01T04:59:22.099Z,93978.47
2022-09-01T05:01:50.632Z,93985.78
2022-09-01T05:04:21.295Z,93986.94
2022-09-01T05:06:50.944Z,93934.06
2022-09-01T05:09:19.382Z,93978.75
2022-09-01T05:11:47.115Z,93957.44
2022-09-01T05:14:14.643Z,93961.22
2022-09-01T05:16:41.159Z,93970.56
2022-09-01T05:19:14.588Z,93952.88
2022-09-01T05:21:45.580Z,93970.13
2022-09-01T05:24:19.035Z,93946.75
2022-09-01T05:26:47.453Z,93973.91
2022-09-01T05:29:17.599Z,93944.56
2022-09-01T05:31:46.966Z,93974.75
2022-09-01T05:34:26.295Z,93949.06
2022-09-01T05:36:55.522Z,93975.19
2022-09-01T05:39:21.997Z,93939.66
2022-09-01T05:41:49.297Z,93962.34
2022-09-01T05:44:17.028Z,93988.78
2022-09-01T05:46:44.512Z,93956.22
2022-09-01T05:49:16.228Z,93983.50
2022-09-01T05:51:46.419Z,93936.97
2022-09-01T05:54:21.327Z,93976.47
2022-09-01T05:56:47.773Z,93960.19
2022-09-01T05:59:23.294Z,93977.50
2022-09-01T06:01:50.893Z,93980.56
2022-09-01T06:04:18.042Z,93952.00
2022-09-01T06:07:06.706Z,93977.38
2022-09-01T06:09:38.585Z,93989.03
2022-09-01T06:12:06.670Z,93988.16
2022-09-01T06:14:33.422Z,93958.09
2022-09-01T06:17:00.274Z,93950.31
2022-09-01T06:19:26.824Z,93965.22
2022-09-01T06:21:53.389Z,93970.28
2022-09-01T06:24:19.861Z,93981.66
2022-09-01T06:26:46.874Z,93985.81
2022-09-01T06:29:15.506Z,93986.63
2022-09-01T06:31:43.224Z,93996.28
2022-09-01T06:34:18.074Z,93962.06
2022-09-01T06:36:46.614Z,93996.69
2022-09-01T06:39:19.659Z,93989.47
2022-09-01T06:41:52.967Z,93990.28
2022-09-01T06:44:22.613Z,93978.31
2022-09-01T06:46:50.824Z,93993.50
2022-09-01T06:49:18.367Z,93996.69
2022-09-01T06:51:49.104Z,93947.81
2022-09-01T06:54:16.351Z,93984.31
2022-09-01T06:56:44.979Z,93957.25
2022-09-01T06:59:20.710Z,93999.50
2022-09-01T07:01:48.944Z,93997.81
2022-09-01T07:04:21.428Z,93986.44
2022-09-01T07:07:00.086Z,93986.91
2022-09-01T07:09:39.699Z,93993.13
2022-09-01T07:12:29.675Z,93975.25
2022-09-01T07:17:50.049Z,94006.56
2022-09-01T07:20:25.405Z,93965.41
2022-09-01T07:23:09.224Z,93982.34
2022-09-01T07:26:01.560Z,93984.09
2022-09-01T07:28:36.073Z,93992.34
2022-09-01T07:45:27.529Z,93996.44
2022-09-01T07:47:54.976Z,93992.22
2022-09-01T07:53:18.426Z,94011.72
2022-09-01T07:55:46.908Z,94023.19
2022-09-01T07:58:13.919Z,94008.84
2022-09-01T08:00:44.415Z,94033.38
2022-09-01T08:03:10.941Z,94011.00
2022-09-01T08:05:37.677Z,94026.59
2022-09-01T08:08:18.618Z,94007.81
2022-09-01T08:10:49.233Z,94042.91
2022-09-01T08:13:17.185Z,94042.41
2022-09-01T08:18:48.241Z,94031.88
2022-09-01T08:21:16.064Z,94030.38
2022-09-01T08:23:42.544Z,94036.31
2022-09-01T08:26:11.454Z,94036.66
2022-09-01T08:28:38.190Z,94033.63
2022-09-01T08:31:13.701Z,94023.53
2022-09-01T08:33:41.855Z,94054.03
2022-09-01T08:36:10.178Z,94053.72
2022-09-01T08:38:37.019Z,94038.72
2022-09-01T08:41:05.830Z,94047.88
2022-09-01T08:43:47.282Z,94041.38
2022-09-01T08:46:26.974Z,94050.63
2022-09-01T08:49:24.286Z,94036.41
2022-09-01T08:51:56.896Z,94041.47
2022-09-01T08:54:36.243Z,94040.50
2022-09-01T08:57:08.634Z,94055.78
2022-09-01T08:59:35.067Z,94030.13
2022-09-01T09:02:39.092Z,94056.91
2022-09-01T09:05:23.189Z,94067.47
2022-09-01T09:08:07.282Z,94065.25
2022-09-01T09:10:58.976Z,94065.41
2022-09-01T09:13:50.011Z,94064.13
2022-09-01T09:16:22.671Z,94066.22
2022-09-01T09:19:24.132Z,94035.28
2022-09-01T09:21:52.846Z,94041.53
2022-09-01T09:25:00.271Z,94056.91
2022-09-01T09:27:33.635Z,94056.97
2022-09-01T09:30:20.902Z,94036.56
2022-09-01T09:35:42.155Z,94054.66
2022-09-01T09:38:18.840Z,94062.97
2022-09-01T09:41:20.588Z,94054.63
2022-09-01T09:43:58.953Z,94053.91
2022-09-01T09:46:31.731Z,94058.22
2022-09-01T09:49:34.645Z,94048.44
2022-09-01T09:52:03.094Z,94048.94
2022-09-01T09:54:35.026Z,94040.19
2022-09-01T09:57:13.806Z,94039.38
2022-09-01T10:00:01.928Z,94046.91
2022-09-01T10:02:35.026Z,94042.28
2022-09-01T10:05:26.453Z,94034.75
2022-09-01T10:07:55.883Z,94021.00
2022-09-01T10:10:39.127Z,94034.19
2022-09-01T10:13:10.662Z,94026.78
2022-09-01T10:15:38.831Z,94020.78
2022-09-01T10:18:20.056Z,94030.69
2022-09-01T10:21:00.384Z,94007.31
2022-09-01T10:23:31.169Z,94005.50
2022-09-01T10:26:09.746Z,94036.44
2022-09-01T10:29:06.196Z,93998.22
2022-09-01T10:31:34.117Z,94027.63
2022-09-01T10:34:06.208Z,94032.00
2022-09-01T10:36:35.534Z,94033.53
2022-09-01T10:39:06.185Z,94023.31
2022-09-01T10:42:07.463Z,94027.44
2022-09-01T10:44:54.636Z,94024.56
2022-09-01T10:47:33.576Z,93977.22
2022-09-01T10:50:09.967Z,94031.03
2022-09-01T10:52:43.312Z,94023.03
2022-09-01T10:55:24.201Z,93998.50
2022-09-01T10:58:08.515Z,94025.06
2022-09-01T11:01:10.528Z,94009.09
2022-09-01T11:03:41.048Z,94028.78
2022-09-01T11:07:11.536Z,94017.19
2022-09-01T11:09:34.708Z,94025.16
2022-09-01T11:12:07.345Z,94020.88
2022-09-01T11:14:46.413Z,94026.91
2022-09-01T11:17:21.257Z,94019.50
2022-09-01T11:19:55.505Z,94028.84
2022-09-01T11:22:28.775Z,93993.16
2022-09-01T11:25:16.715Z,94021.94
2022-09-01T11:27:49.256Z,94027.84
2022-09-01T11:30:37.270Z,94026.09
2022-09-01T11:33:31.168Z,94018.59
2022-09-01T11:36:06.563Z,93997.00
2022-09-01T11:38:47.655Z,94000.84
2022-09-01T11:41:57.411Z,94023.94
2022-09-01T11:44:32.536Z,93995.72
2022-09-01T11:47:04.588Z,94015.03
2022-09-01T11:49:39.063Z,93988.97
2022-09-01T11:52:06.379Z,94017.19
2022-09-01T11:54:39.883Z,94011.53
2022-09-01T11:57:27.411Z,94014.75
2022-09-01T11:59:55.079Z,93999.56
2022-09-01T12:02:25.561Z,94017.41
2022-09-01T12:04:55.374Z,94020.66
2022-09-01T12:07:40.112Z,94004.41
2022-09-01T12:10:17.231Z,94011.50
2022-09-01T12:12:43.650Z,94002.16
2022-09-01T12:15:18.086Z,94016.75
2022-09-01T12:17:46.092Z,93988.00
2022-09-01T12:20:39.054Z,94010.28
2022-09-01T12:23:17.302Z,94014.44
2022-09-01T12:25:45.303Z,93988.91
2022-09-01T12:28:12.325Z,94003.16
2022-09-01T12:30:41.099Z,93997.91
2022-09-01T12:33:26.487Z,94017.59
2022-09-01T12:36:11.377Z,93998.81
2022-09-01T12:38:37.784Z,94004.66
2022-09-01T12:41:23.913Z,94018.94
2022-09-01T12:43:54.628Z,93991.34
2022-09-01T12:46:44.832Z,94016.84
2022-09-01T12:49:28.573Z,94022.34
2022-09-01T12:52:19.947Z,94018.44
2022-09-01T12:54:48.259Z,94029.63
2022-09-01T12:57:34.746Z,94020.69
2022-09-01T13:00:15.559Z,94021.63
2022-09-01T13:03:14.054Z,94022.22
2022-09-01T13:05:42.851Z,94010.94
2022-09-01T13:08:14.886Z,93996.53
2022-09-01T13:10:47.541Z,94024.19
2022-09-01T13:13:16.746Z,94017.88
2022-09-01T13:15:50.302Z,93992.84
2022-09-01T13:18:18.372Z,94027.50
2022-09-01T13:20:45.599Z,93992.91
2022-09-01T13:23:12.788Z,94016.38
2022-09-01T13:25:40.470Z,94014.28
2022-09-01T13:28:07.809Z,94016.00
2022-09-01T13:30:35.158Z,94021.88
2022-09-01T13:35:49.541Z,94010.22
2022-09-01T13:38:16.807Z,93992.91
2022-09-01T13:40:47.193Z,93991.09
2022-09-01T13:43:15.655Z,94013.19
2022-09-01T13:45:42.677Z,94002.72
2022-09-01T13:48:16.078Z,94018.19
2022-09-01T13:53:30.683Z,93992.06
2022-09-01T13:58:28.624Z,93990.94
2022-09-01T14:00:55.150Z,93966.59
2022-09-01T14:03:23.979Z,93965.63
2022-09-01T14:05:50.944Z,93988.03
2022-09-01T14:08:20.887Z,93961.38
2022-09-01T14:10:50.946Z,93974.63
2022-09-01T14:13:20.251Z,93976.75
2022-09-01T14:15:48.215Z,93982.13
2022-09-01T14:18:16.315Z,93998.06
2022-09-01T14:20:46.219Z,93990.13
2022-09-01T14:23:15.233Z,93995.19
2022-09-01T14:25:44.442Z,93985.94
2022-09-01T14:28:11.066Z,93984.88
2022-09-01T14:30:42.616Z,93988.63
2022-09-01T14:33:09.991Z,93983.84
2022-09-01T14:35:40.312Z,93980.63
2022-09-01T14:38:08.767Z,93963.78
2022-09-01T14:40:37.869Z,93986.09
2022-09-01T14:43:07.747Z,93991.59
2022-09-01T14:45:34.168Z,93951.72
2022-09-01T14:48:01.208Z,93966.66
2022-09-01T14:50:32.314Z,93962.09
2022-09-01T14:53:00.596Z,93984.72
2022-09-01T14:55:30.155Z,93964.97
2022-09-01T14:57:58.122Z,93987.88
2022-09-01T15:00:27.630Z,93970.41
2022-09-01T15:02:55.122Z,93964.56
2022-09-01T15:05:22.846Z,93962.50
2022-09-01T15:07:49.837Z,93951.34
2022-09-01T15:10:25.339Z,93976.38
2022-09-01T15:12:54.553Z,93974.53
2022-09-01T15:15:21.104Z,93937.28
2022-09-01T15:17:47.567Z,93943.94
2022-09-01T15:20:33.255Z,93974.25
2022-09-01T15:23:01.046Z,93973.72
2022-09-01T15:25:27.482Z,93974.78
2022-09-01T15:27:53.921Z,93971.09
2022-09-01T15:30:21.625Z,93939.16
2022-09-01T15:32:51.836Z,93950.84
2022-09-01T15:35:19.444Z,93890.22
2022-09-01T15:37:50.280Z,93968.41
2022-09-01T15:40:17.366Z,93949.25
2022-09-01T15:42:44.485Z,93949.25
2022-09-01T15:45:17.381Z,93955.09
2022-09-01T15:47:45.799Z,93956.16
2022-09-01T15:50:21.578Z,93915.75
2022-09-01T15:52:50.032Z,93956.69
2022-09-01T15:55:20.057Z,93944.47
2022-09-01T15:57:47.057Z,93960.44
2022-09-01T16:00:14.963Z,93952.72
2022-09-01T16:02:41.477Z,93948.19
2022-09-01T16:05:08.824Z,93933.56
2022-09-01T16:07:35.321Z,93946.09
2022-09-01T16:10:01.882Z,93926.66
2022-09-01T16:12:28.848Z,93962.56
2022-09-01T16:14:55.395Z,93938.63
2022-09-01T16:17:49.764Z,93954.06
2022-09-01T16:20:27.072Z,93954.56
2022-09-01T16:22:55.316Z,93960.94
2022-09-01T16:25:33.042Z,93941.22
2022-09-01T16:28:05.127Z,93918.31
2022-09-01T16:30:31.548Z,93927.81
2022-09-01T16:33:02.020Z,93920.94
2022-09-01T16:35:44.628Z,93956.53
2022-09-01T16:38:31.572Z,93936.47
2022-09-01T16:41:08.111Z,93962.81
2022-09-01T16:44:02.765Z,93958.03
2022-09-01T16:46:57.213Z,93935.13
2022-09-01T16:49:36.737Z,93955.91
2022-09-01T16:52:15.203Z,93946.78
2022-09-01T16:54:53.739Z,93958.50
2022-09-01T16:57:46.011Z,93946.75
2022-09-01T17:00:15.372Z,93926.53
2022-09-01T17:02:44.766Z,93948.38
2022-09-01T17:05:22.083Z,93957.91
2022-09-01T17:08:11.851Z,93948.78
2022-09-01T17:10:57.765Z,93951.94
2022-09-01T17:13:39.938Z,93951.38
2022-09-01T17:16:11.275Z,93946.00
2022-09-01T17:18:52.791Z,93945.50
2022-09-01T17:21:22.226Z,93951.72
2022-09-01T17:23:55.591Z,93917.06
2022-09-01T17:26:26.738Z,93945.47
2022-09-01T17:29:02.220Z,93933.78
2022-09-01T17:31:37.493Z,93919.81
2022-09-01T17:34:27.345Z,93960.78
2022-09-01T17:37:17.976Z,93926.69
2022-09-01T17:40:10.239Z,93950.75
2022-09-01T17:42:53.803Z,93933.53
2022-09-01T17:45:38.614Z,93961.25
2022-09-01T17:48:13.209Z,93962.56
2022-09-01T17:53:22.658Z,93982.00
2022-09-01T17:56:33.933Z,93980.63
2022-09-01T17:59:14.491Z,93971.28
2022-09-01T18:02:05.816Z,93977.06
2022-09-01T18:04:42.692Z,93975.16
2022-09-01T18:07:53.623Z,93983.03
2022-09-01T18:10:39.962Z,93984.47
2022-09-01T18:13:14.690Z,93988.44
2022-09-01T18:15:52.500Z,93959.25
2022-09-01T18:18:26.340Z,93995.91
2022-09-01T18:21:00.707Z,94003.06
2022-09-01T18:23:30.994Z,93982.72
2022-09-01T18:26:23.192Z,93984.59
2022-09-01T18:28:54.025Z,94007.31
2022-09-01T18:31:32.666Z,94007.81
2022-09-01T18:34:05.152Z,94008.06
2022-09-01T18:36:46.748Z,94011.94
2022-09-01T18:39:34.324Z,94017.81
2022-09-01T18:42:44.506Z,94008.03
2022-09-01T18:45:33.024Z,94006.31
2022-09-01T18:48:07.598Z,94012.50
2022-09-01T18:50:45.672Z,94000.91
2022-09-01T18:53:24.332Z,93987.06
2022-09-01T18:56:39.244Z,93986.09
2022-09-01T18:59:47.591Z,94012.25
2022-09-01T19:02:36.057Z,94014.56
2022-09-01T19:05:15.653Z,93963.41
2022-09-01T19:08:00.684Z,94016.50
2022-09-01T19:10:39.754Z,94010.88
2022-09-01T19:13:41.695Z,94013.38
2022-09-01T19:16:30.307Z,93970.13
2022-09-01T19:19:01.870Z,94005.91
2022-09-01T19:21:34.492Z,93985.91
2022-09-01T19:24:17.218Z,93982.84
2022-09-01T19:26:48.638Z,94003.22
2022-09-01T19:29:27.156Z,94005.34
2022-09-01T19:31:59.712Z,94007.81
2022-09-01T19:34:32.312Z,93976.28
2022-09-01T19:37:01.411Z,93997.53
2022-09-01T19:39:30.485Z,94000.81
2022-09-01T19:42:18.110Z,94003.28
2022-09-01T19:45:12.162Z,94010.88
2022-09-01T19:47:52.326Z,93979.91
2022-09-01T19:50:33.316Z,93969.94
2022-09-01T19:53:07.448Z,93995.69
2022-09-01T19:55:44.650Z,94000.38
2022-09-01T19:58:22.315Z,93976.66
2022-09-01T20:01:04.292Z,93995.25
2022-09-01T20:03:48.574Z,94005.03
2022-09-01T20:06:33.344Z,93992.19
2022-09-01T20:09:07.220Z,94001.25
2022-09-01T20:12:14.151Z,94005.47
2022-09-01T20:14:48.513Z,93999.00
2022-09-01T20:17:22.152Z,93991.31
2022-09-01T20:20:06.818Z,93995.81
2022-09-01T20:22:42.508Z,93989.72
2022-09-01T20:25:13.610Z,93965.69
2022-09-01T20:28:01.380Z,93973.94
2022-09-01T20:30:37.069Z,93989.94
2022-09-01T20:33:15.155Z,93968.78
2022-09-01T20:35:44.310Z,93995.41
2022-09-01T20:38:59.694Z,93984.00
2022-09-01T20:41:37.449Z,93987.94
2022-09-01T20:44:15.594Z,93979.13
2022-09-01T20:46:42.005Z,93962.03
2022-09-01T20:49:15.856Z,93968.22
2022-09-01T20:51:53.431Z,93950.44
2022-09-01T20:54:40.254Z,93987.66
2022-09-01T20:57:23.088Z,93986.44
2022-09-01T20:59:55.163Z,93958.03
2022-09-01T21:02:35.649Z,93990.59
2022-09-01T21:05:30.154Z,93989.34
2022-09-01T21:08:14.663Z,93983.22
2022-09-01T21:11:03.110Z,93989.50
2022-09-01T21:13:52.870Z,93965.41
2022-09-01T21:16:29.041Z,93973.94
2022-09-01T21:19:34.972Z,93973.16
2022-09-01T21:22:11.302Z,93956.91
2022-09-01T21:24:38.900Z,93961.44
2022-09-01T21:27:11.502Z,93982.16
2022-09-01T21:29:50.122Z,93988.13
2022-09-01T21:32:17.006Z,93971.63
2022-09-01T21:34:44.426Z,93981.59
2022-09-01T21:37:11.754Z,93982.00
2022-09-01T21:39:38.164Z,93970.53
2022-09-01T21:42:07.773Z,93967.03
2022-09-01T21:44:35.287Z,93979.53
2022-09-01T21:47:01.956Z,93944.06
2022-09-01T21:49:28.406Z,93947.88
2022-09-01T21:51:58.590Z,93950.50
2022-09-01T21:54:25.023Z,93942.41
2022-09-01T21:56:53.267Z,93928.72
2022-09-01T21:59:20.436Z,93922.19
2022-09-01T22:01:47.144Z,93952.84
2022-09-01T22:04:13.599Z,93930.41
2022-09-01T22:06:40.934Z,93952.97
2022-09-01T22:09:20.265Z,93942.75
2022-09-01T22:11:48.659Z,93944.91
2022-09-01T22:14:15.480Z,93920.38
2022-09-01T22:16:42.570Z,93922.88
2022-09-01T22:19:09.055Z,93928.13
2022-09-01T22:21:36.378Z,93942.47
2022-09-01T22:24:03.623Z,93927.34
2022-09-01T22:26:31.946Z,93948.22
2022-09-01T22:29:00.273Z,93947.66
2022-09-01T22:31:29.179Z,93942.75
2022-09-01T22:33:55.611Z,93908.41
2022-09-01T22:36:25.308Z,93934.53
2022-09-01T22:38:52.042Z,93909.34
2022-09-01T22:41:24.162Z,93940.31
2022-09-01T22:43:51.224Z,93937.22
2022-09-01T22:46:21.927Z,93910.38
2022-09-01T22:48:49.256Z,93918.88
2022-09-01T22:51:16.291Z,93929.75
2022-09-01T22:53:44.973Z,93888.34
2022-09-01T22:56:17.802Z,93834.50
2022-09-01T22:58:44.202Z,93910.56
2022-09-01T23:01:14.947Z,93921.81
2022-09-01T23:03:43.814Z,93926.69
2022-09-01T23:06:13.907Z,93939.16
2022-09-01T23:08:50.825Z,93922.34
2022-09-01T23:11:17.291Z,93936.44
2022-09-01T23:13:44.547Z,93946.91
2022-09-01T23:16:13.219Z,93941.47
2022-09-01T23:18:42.813Z,93946.56
2022-09-01T23:21:11.841Z,93936.13
2022-09-01T23:23:39.310Z,93899.50
2022-09-01T23:26:08.042Z,93930.09
2022-09-01T23:28:35.507Z,93923.47
2022-09-01T23:31:02.326Z,93933.34
2022-09-01T23:33:30.203Z,93893.50
2022-09-01T23:35:56.747Z,93924.09
2022-09-01T23:38:24.568Z,93926.91
2022-09-01T23:40:54.222Z,93926.72
2022-09-01T23:43:22.937Z,93907.56
2022-09-01T23:45:52.869Z,93898.31
2022-09-01T23:48:19.850Z,93922.66
2022-09-01T23:50:50.827Z,93911.19
2022-09-01T23:53:18.641Z,93905.56
2022-09-01T23:55:48.158Z,93893.50
2022-09-01T23:58:15.183Z,93893.06
